Enter the Airport ICAO Code

Search by Airport or City

Current Weather

LFMN | Nice Côte d'Azur Airport

Nice, Provence-Alpes-Côte d'Azur, France

Last Update 31 Minutes Ago

Mostly Cloudy Sky

Temperature of 10 ºC

Light to Moderate Winds from NorthWest

Temperature

10 ºC

Dew Point Temperature

08 ºC

Relative Humidity

87.42 %

Wind Direction

NorthWest (320º, Without Significant Variations)

Wind Velocity

13 km/h (07 kt)

Gusts

None

Visibility

Greater than 10 Kilometers

Sea Level Pressure

1023 hPa (Hectopascals)

Layers of Clouds

60% to 90% of Sky Covered from 518 mts (1700 ft) Above Ground Level.

METAR LFMN 270330Z 32007KT 9999 BKN017 10/08 Q1023 NOSIG

Weather Forecast

LFMN | Nice Côte d'Azur Airport

Nice, Provence-Alpes-Côte d'Azur, France

Forecast valid for the next 29 Hours

From now on it is expected:

Mostly Cloudy Sky

Light to Moderate Winds from NorthEast

From now on it is expected 4 hours with intermittent periods of:

Moderate Winds from NorthWest

In 5 to 7 hours it is expected the begining of:

Moderate Winds from East

In 14 to 16 hours it is expected the begining of:

Clear Sky

Moderate Winds from North

Maximum Temperature

No Data

Minimum Temperature

No Data

TAF LFMN 270200Z 2703/2809 03005KT 9999 BKN018 TEMPO 2703/2708 33010KT BECMG 2709/2711 09010KT BECMG 2718/2720 34010KT CAVOK